• Join FlightAware (Why Join?)
  • Login
  • US Flag 
Rudolph Flight #1: Arrived! 
02:36AM EST


 

Airport Tracker/Info


-or-


 

Live Flight TrackerFlight Track Log ✈ UAL1519 ✈ 20-May-2013 ✈ KEWR - KMCO

Flight Track Log - Related Links

Times and Time Zones

All times are in EDT time to prevent confusion due to time zone crossing. See the UAL1519 flight status page for this flight to view local times or setup timezone preferences in your user account.

Time Position Orientation Groundspeed Altitude Reporting Facility
EDT Latitude Longitude Course Direction KTS MPH feet Rate Location/Type
11:56AM 40.6570 -74.1810 28° Northeast 176 203 1,800  Level FlightAware
11:56AM 40.6370 -74.1870 193° South 193 222 2,700 1,800 Climbing FlightAware
11:56AM 40.6280 -74.2020 232° Southwest 216 249 3,000 1,920 Climbing FlightAware
11:57AM 40.6250 -74.2150 253° West 221 254 3,500 3,060 Climbing FlightAware
11:57AM 40.6267 -74.2559 273° West 242 278 4,900 3,060 Climbing FlightAware ADS-B
11:57AM 40.6255 -74.2728 265° West 248 285 5,500 3,000 Climbing FlightAware ADS-B
11:57AM 40.6235 -74.2956 263° West 255 293 6,300 3,300 Climbing FlightAware ADS-B
11:58AM 40.6209 -74.3248 263° West 260 299 7,400 3,420 Climbing FlightAware ADS-B
11:58AM 40.6185 -74.3502 263° West 266 306 8,300 3,360 Climbing FlightAware ADS-B
11:58AM 40.6161 -74.3773 263° West 271 312 9,200 3,060 Climbing FlightAware ADS-B
11:59AM 40.6139 -74.4008 263° West 275 316 9,900 2,280 Climbing FlightAware ADS-B
11:59AM 40.6089 -74.4564 263° West 308 354 11,000 2,100 Climbing FlightAware ADS-B
12:00PM 40.6032 -74.5168 263° West 336 387 12,100 2,400 Climbing FlightAware ADS-B
12:00PM 40.5977 -74.5759 263° West 348 400 13,400 2,760 Climbing FlightAware ADS-B
12:00PM 40.5963 -74.5861 260° West 350 403 13,600 3,180 Climbing FlightAware ADS-B
12:00PM 40.5917 -74.6087 255° West 354 407 14,200 3,120 Climbing FlightAware ADS-B
12:00PM 40.5886 -74.6200 250° West 354 407 14,500 3,120 Climbing FlightAware ADS-B
12:01PM 40.5761 -74.6533 244° Southwest 358 412 15,400 3,060 Climbing FlightAware ADS-B
12:01PM 40.5491 -74.7091 238° Southwest 362 417 16,900 2,700 Climbing FlightAware ADS-B
12:02PM 40.5212 -74.7660 237° Southwest 372 428 18,200 2,340 Climbing FlightAware ADS-B
12:02PM 40.4903 -74.8283 237° Southwest 383 441 19,400 2,340 Climbing FlightAware ADS-B
12:03PM 40.4602 -74.8892 237° Southwest 391 450 20,700 2,400 Climbing FlightAware ADS-B
12:03PM 40.4343 -74.9412 237° Southwest 397 457 21,700 2,280 Climbing FlightAware ADS-B
12:03PM 40.4177 -74.9714 234° Southwest 401 461 22,300 2,280 Climbing FlightAware ADS-B
12:04PM 40.3794 -75.0293 229° Southwest 410 472 23,500 2,220 Climbing FlightAware ADS-B
12:04PM 40.3382 -75.0869 227° Southwest 417 480 24,600 1,980 Climbing FlightAware ADS-B
12:05PM 40.2966 -75.1448 227° Southwest 424 488 25,600 1,920 Climbing FlightAware ADS-B
12:06PM 40.2561 -75.2013 227° Southwest 429 494 26,600 1,920 Climbing FlightAware ADS-B
12:06PM 40.2135 -75.2605 227° Southwest 434 499 27,600 1,860 Climbing FlightAware ADS-B
12:07PM 40.1717 -75.3190 227° Southwest 438 504 28,500 1,740 Climbing FlightAware ADS-B
12:07PM 40.1281 -75.3796 227° Southwest 444 511 29,400 1,620 Climbing FlightAware ADS-B
12:08PM 40.0843 -75.4406 227° Southwest 449 517 30,200 1,320 Climbing FlightAware ADS-B
12:08PM 40.0400 -75.5018 227° Southwest 458 527 30,800 1,620 Climbing FlightAware ADS-B
12:09PM 39.9957 -75.5633 227° Southwest 456 525 31,900 2,100 Climbing FlightAware ADS-B
12:09PM 39.9502 -75.6260 227° Southwest 451 519 33,000 2,280 Climbing FlightAware ADS-B
12:10PM 39.9058 -75.6903 228° Southwest 442 509 34,300 2,100 Climbing FlightAware ADS-B
12:10PM 39.8654 -75.7538 230° Southwest 437 503 35,300 1,380 Climbing FlightAware ADS-B
12:11PM 39.8190 -75.8290 231° Southwest 435 501 36,000 840 Climbing FlightAware
12:11PM 39.8024 -75.8551 230° Southwest 437 503 36,000  Level FlightAware ADS-B
12:12PM 39.7630 -75.9182 231° Southwest 437 503 36,000  Level FlightAware ADS-B
12:12PM 39.7169 -75.9913 231° Southwest 439 505 36,000  Level FlightAware ADS-B
12:13PM 39.6751 -76.0577 231° Southwest 441 507 36,000  Level FlightAware ADS-B
12:13PM 39.6321 -76.1255 231° Southwest 443 510 36,000  Level FlightAware ADS-B
12:14PM 39.5927 -76.1880 231° Southwest 445 512 36,000  Level FlightAware ADS-B
12:14PM 39.5516 -76.2513 230° Southwest 446 513 36,000  Level FlightAware ADS-B
12:15PM 39.5092 -76.3162 230° Southwest 448 516 36,000  Level FlightAware ADS-B
12:15PM 39.4648 -76.3842 230° Southwest 449 517 36,000  Level FlightAware ADS-B
12:16PM 39.4112 -76.4681 230° Southwest 449 517 36,000  Level FlightAware ADS-B
12:17PM 39.3661 -76.5399 231° Southwest 448 516 36,000  Level FlightAware ADS-B
12:17PM 39.3158 -76.6190 231° Southwest 446 513 36,000  Level FlightAware ADS-B
12:18PM 39.2701 -76.6908 231° Southwest 445 512 36,000  Level FlightAware ADS-B
12:18PM 39.2200 -76.7689 230° Southwest 442 509 36,000  Level FlightAware ADS-B
12:19PM 39.1793 -76.8322 230° Southwest 441 507 36,000  Level FlightAware ADS-B
12:19PM 39.1397 -76.8940 230° Southwest 441 507 36,000  Level FlightAware ADS-B
12:20PM 39.0983 -76.9581 230° Southwest 440 506 36,000  Level FlightAware ADS-B
12:21PM 39.0542 -77.0234 229° Southwest 439 505 36,000  Level FlightAware ADS-B
12:21PM 39.0220 -77.0633 224° Southwest 438 504 36,000  Level FlightAware ADS-B
12:21PM 38.9735 -77.1175 221° Southwest 438 504 36,000  Level FlightAware ADS-B
12:22PM 38.9242 -77.1713 220° Southwest 438 504 36,000  Level FlightAware ADS-B
12:23PM 38.8770 -77.2226 220° Southwest 438 504 36,000  Level FlightAware ADS-B
12:23PM 38.8305 -77.2734 220° Southwest 438 504 36,000  Level FlightAware ADS-B
12:24PM 38.7824 -77.3259 220° Southwest 438 504 36,000  Level FlightAware ADS-B
12:24PM 38.7310 -77.3820 220° Southwest 438 504 36,000  Level FlightAware
12:24PM 38.7165 -77.3978 220° Southwest 438 504 36,000  Level FlightAware ADS-B
12:25PM 38.6700 -77.4490 221° Southwest 438 504 36,000  Level FlightAware
12:25PM 38.6480 -77.4724 220° Southwest 438 504 36,000  Level FlightAware ADS-B
12:26PM 38.5980 -77.5270 220° Southwest 438 504 36,000  Level FlightAware
12:26PM 38.5483 -77.5803 220° Southwest 438 504 36,000  Level FlightAware ADS-B
12:27PM 38.4935 -77.6394 220° Southwest 439 505 36,000  Level FlightAware ADS-B
12:27PM 38.4353 -77.7022 220° Southwest 439 505 36,000  Level FlightAware ADS-B
12:28PM 38.3600 -77.7830 220° Southwest 439 505 36,000  Level FlightAware
12:28PM 38.3325 -77.8126 220° Southwest 440 506 36,000  Level FlightAware ADS-B
12:29PM 38.2350 -77.9170 220° Southwest 440 506 36,000  Level FlightAware
12:30PM 38.1630 -77.9930 220° Southwest 441 507 36,000  Level FlightAware
12:31PM 38.1010 -78.0600 220° Southwest 442 509 36,000  Level FlightAware
12:32PM 38.0310 -78.1340 220° Southwest 442 509 36,000  Level FlightAware
12:32PM 37.9680 -78.1980 219° Southwest 442 509 36,000  Level FlightAware
12:33PM 37.8920 -78.2690 216° Southwest 443 510 36,000  Level FlightAware
12:34PM 37.8260 -78.3310 217° Southwest 442 509 36,000  Level FlightAware
12:34PM 37.7610 -78.3920 217° Southwest 442 509 36,000  Level FlightAware
12:35PM 37.6900 -78.4600 217° Southwest 442 509 36,000  Level FlightAware
12:36PM 37.6240 -78.5220 217° Southwest 441 507 36,000  Level FlightAware
12:36PM 37.5590 -78.5840 217° Southwest 441 507 36,000  Level FlightAware
12:37PM 37.4940 -78.6450 217° Southwest 442 509 36,000  Level FlightAware
12:38PM 37.4130 -78.7210 217° Southwest 441 507 36,000  Level FlightAware
12:39PM 37.3470 -78.7830 217° Southwest 441 507 36,000  Level FlightAware
12:39PM 37.2810 -78.8440 216° Southwest 441 507 36,000  Level FlightAware
12:40PM 37.2150 -78.8900 209° Southwest 432 497 36,000  Level FlightAware
12:41PM 37.1200 -78.9310 199° South 433 498 36,000  Level FlightAware
12:41PM 37.0380 -78.9660 199° South 425 489 36,000  Level FlightAware
12:42PM 36.9650 -78.9980 199° South 422 486 36,000  Level FlightAware
12:43PM 36.8890 -79.0320 200° South 423 487 36,000  Level FlightAware
12:43PM 36.8250 -79.0590 199° South 424 488 36,000  Level FlightAware
12:44PM 36.7440 -79.0910 198° South 416 479 36,000  Level FlightAware
12:45PM 36.6320 -79.1290 195° South 417 480 36,000  Level FlightAware
12:46PM 36.5460 -79.1560 194° South 417 480 36,000  Level FlightAware
12:47PM 36.4680 -79.1820 195° South 416 479 36,000  Level FlightAware
12:47PM 36.3920 -79.2070 195° South 416 479 36,000  Level FlightAware
12:48PM 36.3040 -79.2350 194° South 418 481 36,000  Level FlightAware
12:49PM 36.2200 -79.2630 195° South 418 481 36,000  Level FlightAware
12:49PM 36.1460 -79.2870 195° South 418 481 36,000  Level FlightAware
12:50PM 36.0660 -79.3130 195° South 418 481 36,000  Level FlightAware
12:51PM 35.9710 -79.3430 194° South 429 494 36,000  Level FlightAware
12:52PM 35.8610 -79.3780 194° South 430 495 36,000  Level FlightAware
12:52PM 35.7900 -79.4010 195° South 429 494 36,000  Level FlightAware
12:53PM 35.7180 -79.4230 194° South 430 495 36,000  Level FlightAware
12:54PM 35.6450 -79.4470 195° South 429 494 36,000  Level FlightAware
12:54PM 35.5730 -79.4700 195° South 429 494 36,000  Level FlightAware
12:55PM 35.5090 -79.4910 195° South 428 493 36,000  Level FlightAware
12:56PM 35.4420 -79.5120 194° South 428 493 36,000  Level FlightAware
12:56PM 35.3470 -79.5420 194° South 428 493 36,000  Level FlightAware
12:57PM 35.2820 -79.5620 194° South 428 493 36,000  Level FlightAware
12:58PM 35.2130 -79.5940 201° Southwest 424 488 36,000  Level FlightAware
12:58PM 35.1650 -79.6400 218° Southwest 424 488 36,000  Level FlightAware
12:59PM 35.0830 -79.7030 212° Southwest 424 488 36,000  Level FlightAware
01:00PM 35.0270 -79.7460 212° Southwest 424 488 36,000  Level FlightAware
01:00PM 34.9700 -79.7890 212° Southwest 424 488 36,000  Level FlightAware
01:01PM 34.9130 -79.8320 212° Southwest 424 488 36,000  Level FlightAware
01:02PM 34.8570 -79.8750 212° Southwest 424 488 36,000  Level FlightAware
01:02PM 34.8000 -79.9180 212° Southwest 424 488 36,000  Level FlightAware
01:03PM 34.7200 -80.1260 245° Southwest 421 484 36,000  Level FlightAware
01:04PM 34.6610 -80.1910 222° Southwest 420 483 36,000  Level FlightAware
01:05PM 34.5960 -80.2600 221° Southwest 420 483 36,000  Level FlightAware
01:05PM 34.5370 -80.3250 222° Southwest 420 483 36,000  Level FlightAware
01:06PM 34.4800 -80.3860 221° Southwest 421 484 36,000  Level FlightAware
01:07PM 34.4140 -80.4570 222° Southwest 424 488 36,000  Level FlightAware
01:07PM 34.3630 -80.5120 222° Southwest 427 491 36,000  Level FlightAware
01:08PM 34.2840 -80.5970 222° Southwest 427 491 36,000  Level FlightAware
01:09PM 34.2330 -80.6510 221° Southwest 428 493 36,000  Level FlightAware
01:10PM 34.1540 -80.7350 221° Southwest 430 495 36,000  Level FlightAware
01:10PM 34.0890 -80.8040 221° Southwest 431 496 36,000  Level FlightAware
01:11PM 34.0200 -80.8780 222° Southwest 430 495 36,000  Level FlightAware
01:12PM 33.9580 -80.9440 221° Southwest 428 493 36,000  Level FlightAware
01:12PM 33.8980 -81.0070 221° Southwest 427 491 36,000  Level FlightAware
01:13PM 33.8300 -81.0490 207° Southwest 426 490 36,000  Level FlightAware
01:14PM 33.7430 -81.0590 185° South 426 490 36,000  Level FlightAware
01:14PM 33.6640 -81.0660 184° South 426 490 36,000  Level FlightAware
01:15PM 33.5890 -81.0720 184° South 427 491 36,000  Level FlightAware
01:16PM 33.4950 -81.0800 184° South 428 493 36,000  Level FlightAware
01:17PM 33.4180 -81.0870 184° South 429 494 36,000  Level FlightAware
01:17PM 33.3290 -81.0950 184° South 429 494 36,000  Level FlightAware
01:18PM 33.2600 -81.1010 184° South 430 495 36,000  Level FlightAware
01:19PM 33.1830 -81.1080 184° South 431 496 36,000  Level FlightAware
01:19PM 33.1020 -81.1140 184° South 432 497 36,000  Level FlightAware
01:20PM 33.0110 -81.1220 184° South 433 498 36,000  Level FlightAware
01:21PM 32.9290 -81.1290 184° South 433 498 36,000  Level FlightAware
01:21PM 32.8500 -81.1360 184° South 434 499 36,000  Level FlightAware
01:22PM 32.7810 -81.1420 184° South 434 499 36,000  Level FlightAware
01:22PM 32.7100 -81.1480 184° South 434 499 36,000  Level FlightAware
01:23PM 32.6400 -81.1540 184° South 435 501 36,000  Level FlightAware
01:24PM 32.5830 -81.1590 184° South 435 501 36,000  Level FlightAware
01:25PM 32.3740 -81.1760 184° South 433 498 36,000  Level FlightAware
01:26PM 32.3110 -81.1820 185° South 432 497 36,000  Level FlightAware
01:26PM 32.2720 -81.1850 184° South 432 497 36,000  Level FlightAware
01:27PM 32.1870 -81.2070 192° South 428 493 36,000  Level FlightAware
01:28PM 32.1160 -81.2500 207° Southwest 427 491 36,000  Level FlightAware
01:28PM 32.0470 -81.2930 208° Southwest 425 489 36,000  Level FlightAware
01:29PM 31.9730 -81.3390 208° Southwest 424 488 36,000  Level FlightAware
01:30PM 31.8900 -81.3920 208° Southwest 422 486 36,000  Level FlightAware
01:30PM 31.8230 -81.4220 201° Southwest 421 484 36,000  Level FlightAware
01:31PM 31.7290 -81.4190 178° South 423 487 36,000  Level FlightAware
01:32PM 31.6440 -81.4000 169° South 424 488 36,000  Level FlightAware
01:33PM 31.5710 -81.3810 167° South 424 488 36,000  Level FlightAware
01:33PM 31.5010 -81.3630 168° South 424 488 36,000  Level FlightAware
01:34PM 31.4070 -81.3390 168° South 425 489 36,000  Level FlightAware
01:35PM 31.3070 -81.3140 168° South 425 489 36,000  Level FlightAware
01:35PM 31.2420 -81.2980 168° South 428 493 36,000  Level FlightAware
01:36PM 31.1660 -81.2790 168° South 430 495 36,000  Level FlightAware
01:37PM 31.0850 -81.2590 168° South 431 496 36,000  Level FlightAware
01:37PM 31.0080 -81.2400 168° South 431 496 36,000 -420 Level FlightAware
01:41PM 30.5860 -81.1480 169° South 34,000 -480 Descending FlightAware
01:42PM 30.4380 -81.1430 178° South 422 486 34,000  Level FlightAware
01:43PM 30.3700 -81.1420 179° South 424 488 34,000 -180 Level FlightAware
01:44PM 30.2480 -81.1380 178° South 426 490 33,800 -780 Descending FlightAware
01:45PM 30.1600 -81.1350 178° South 437 503 32,600 -1,500 Descending FlightAware
01:45PM 30.0760 -81.1330 179° South 441 507 31,600 -720 Descending FlightAware
01:46PM 29.9910 -81.1290 178° South 441 507 31,600 -1,140 Level FlightAware
01:47PM 30.0140 -81.1300 358° North 445 512 30,000 -3,300 Descending FlightAware
01:48PM 30.0760 -81.1330 358° North 445 512 26,700 -2,640 Descending FlightAware
01:48PM 30.0270 -81.1320 179° South 445 512 26,700 -2,520 Level FlightAware
01:49PM 30.0760 -81.1330 359° North 445 512 23,800 -2,220 Descending FlightAware
01:49PM 30.0090 -81.1310 179° South 445 512 23,800  Level FlightAware
01:50PM 29.9220 -81.1300 179° South 445 512 23,800  Level FlightAware
01:51PM 29.8520 -81.1280 179° South 445 512 23,800  Level FlightAware
01:51PM 29.7820 -81.1270 179° South 445 512 23,800  Level FlightAware
01:52PM 29.7120 -81.1250 179° South 445 512 23,800 -7,800 Level FlightAware
01:52PM 29.2269 -81.1103 179° South 400 460 16,300 -6,960 Descending Jacksonville Center
01:53PM 29.1350 -81.0978 173° South 361 415 14,800 -1,740 Descending Jacksonville Center
01:54PM 29.0453 -81.0947 178° South 337 388 12,900 -1,200 Descending Jacksonville Center
02:00PM 28.7300 -81.2100 178° South 252 290 6,900 -1,140 Descending FlightAware
02:00PM 28.7070 -81.2310 219° Southwest 251 289 6,400 -1,380 Descending FlightAware
02:01PM 28.6840 -81.2420 203° Southwest 250 288 6,000 -780 Descending FlightAware
02:01PM 28.6670 -81.2500 202° Southwest 249 287 5,700 -840 Descending FlightAware
02:02PM 28.6380 -81.2630 201° Southwest 244 281 5,200 -1,140 Descending FlightAware
02:02PM 28.6060 -81.2760 200° South 238 274 4,400 -1,200 Descending FlightAware
02:03PM 28.5980 -81.2790 198° South 231 266 4,100 -600 Descending FlightAware
02:03PM 28.5690 -81.2860 192° South 231 266 3,900 -720 Descending FlightAware
02:04PM 28.5710 -81.2810 66° East 216 249 3,300 -600 Descending FlightAware
02:04PM 28.5480 -81.2810 180° South 216 249 3,300 -840 Level FlightAware
02:05PM 28.5520 -81.2810 360° North 208 239 2,600 -1,500 Descending FlightAware
02:05PM 28.5380 -81.2810 180° South 201 231 2,200 -1,080 Descending FlightAware
02:06PM 28.5190 -81.2740 162° South 202 232 1,700 -600 Descending FlightAware
02:06PM 28.4990 -81.2630 154° Southeast 202 232 1,700  Level FlightAware